Latest Weather Observations for Avalon

IDV60901

Issued at 11:31 pm EST Saturday 4 July 2015 (issued every 10 minutes, with the page automatically refreshed every 10 minutes)

About weather observations | Map of Melbourne area stations | Latest observations for Melbourne area | Other Formats
Station Details ID: 087113 Name: AVALON AIRPORT Lat: -38.03 Lon: 144.48 Height: 10.6 m
Data from the previous 72 hours. | See also: Recent months at Avalon
Date/Time
EST
Tmp

°C
App
Tmp
°C
Dew
Point
°C
Rel
Hum
%
Delta-T

°C
Wind Press
QNH
hPa
Press
MSL
hPa
Rain
since
9 am
mm
Dir
 
Spd
km/h
Gust
km/h
Spd
kts
Gust
kts
04/11:30pm 9.9 7.3 6.1 77 1.7 NNW 9 13 5 7 1020.7 1020.7 0.8
04/11:00pm 10.1 6.7 6.1 76 1.8 N 13 15 7 8 1020.8 1020.8 0.8
04/10:30pm 10.7 7.4 6.3 74 2.1 N 13 15 7 8 1020.8 1020.8 0.8
04/10:00pm 10.5 7.7 6.8 78 1.7 N 11 15 6 8 1020.9 1020.9 0.8
04/09:30pm 10.1 8.3 7.0 81 1.5 NNE 6 7 3 4 1021.2 1021.2 0.8
04/09:00pm 10.2 7.7 6.5 78 1.7 N 9 11 5 6 1021.2 1021.2 0.8
04/08:30pm 10.8 7.6 6.7 76 1.9 NNW 13 17 7 9 1021.3 1021.3 0.8
04/08:00pm 10.8 7.6 6.9 77 1.8 NNW 13 15 7 8 1021.4 1021.4 0.8
04/07:30pm 11.4 8.2 6.9 74 2.1 NW 13 15 7 8 1021.4 1021.4 0.8
04/07:00pm 10.9 8.5 6.8 76 1.9 NNW 9 13 5 7 1021.3 1021.3 0.8
04/06:30pm 10.6 7.4 6.7 77 1.8 NNW 13 15 7 8 1021.2 1021.2 0.8
04/06:00pm 10.8 7.5 6.6 75 2.0 NNW 13 17 7 9 1020.9 1020.9 0.8
04/05:30pm 11.5 7.4 6.4 71 2.4 NW 17 20 9 11 1020.7 1020.7 0.8
04/05:00pm 11.8 8.2 6.7 71 2.4 NW 15 20 8 11 1020.6 1020.6 0.8
04/04:30pm 12.1 7.8 6.8 70 2.5 NW 19 26 10 14 1020.6 1020.6 0.8
04/04:00pm 12.3 7.9 7.2 71 2.5 NW 20 26 11 14 1020.7 1020.7 0.8
04/03:30pm 12.5 7.7 7.4 71 2.5 NW 22 30 12 16 1020.6 1020.6 0.8
04/03:00pm 12.5 8.2 7.8 73 2.3 WNW 20 33 11 18 1020.5 1020.5 0.8
04/02:30pm 12.7 8.4 7.8 72 2.4 WNW 20 30 11 16 1020.4 1020.4 0.8
04/02:00pm 12.5 8.2 7.8 73 2.3 WNW 20 30 11 16 1020.6 1020.6 0.8
04/01:30pm 12.6 8.5 7.9 73 2.3 WNW 19 28 10 15 1020.8 1020.8 0.8
04/01:00pm 12.2 9.2 7.9 75 2.1 WNW 13 20 7 11 1020.9 1020.9 0.8
04/12:30pm 12.1 9.2 8.0 76 2.0 NW 13 20 7 11 1021.1 1021.1 0.8
04/12:00pm 11.9 7.6 8.0 77 1.9 WNW 20 26 11 14 1021.5 1021.5 0.8
04/11:30am 11.2 7.5 8.1 81 1.5 WNW 17 22 9 12 1021.8 1021.8 0.8
04/11:00am 11.1 7.4 8.0 81 1.5 WNW 17 20 9 11 1022.1 1022.1 0.6
04/10:30am 11.2 7.3 7.1 76 2.0 WNW 17 24 9 13 1022.1 1022.1 0.2
04/10:00am 10.5 8.1 7.0 79 1.7 NNW 9 15 5 8 1022.0 1022.0 0.2
04/09:30am 9.7 7.1 6.2 79 1.6 WNW 9 15 5 8 1022.1 1022.1 0.2
04/09:00am 10.0 5.3 5.2 72 2.2 NNW 19 26 10 14 1021.7 1021.7 0.0
04/08:30am 9.6 4.8 4.6 71 2.2 NNW 19 22 10 12 1021.8 1021.8 0.0
04/08:00am 9.9 4.8 3.9 66 2.6 NW 20 28 11 15 1021.7 1021.7 0.0
04/07:30am 9.8 3.5 3.5 65 2.7 NW 26 33 14 18 1021.3 1021.3 0.0
04/07:00am 9.9 2.8 3.6 65 2.7 NW 30 35 16 19 1021.0 1021.0 0.0
04/06:30am 9.9 3.2 3.4 64 2.8 NW 28 35 15 19 1021.0 1021.0 0.0
04/06:00am 9.6 4.3 3.1 64 2.8 NW 20 28 11 15 1021.3 1021.3 0.0
04/05:30am 9.4 4.7 2.9 64 2.8 NW 17 22 9 12 1021.4 1021.4 0.0
04/05:00am 8.7 5.1 3.1 68 2.4 NNW 11 15 6 8 1021.4 1021.4 0.0
04/04:30am 7.5 3.5 2.6 71 2.0 NNW 13 19 7 10 1021.5 1021.5 0.0
04/04:00am 7.9 4.6 2.4 68 2.3 NNW 9 9 5 5 1021.8 1021.8 0.0
04/03:30am 8.6 4.1 2.4 65 2.6 NNW 15 19 8 10 1021.7 1021.7 0.0
04/03:00am 8.9 4.1 2.5 64 2.7 NW 17 20 9 11 1022.2 1022.2 0.0
04/02:30am 8.7 3.8 2.3 64 2.7 NNW 17 20 9 11 1022.5 1022.5 0.0
04/02:00am 8.4 3.9 2.2 65 2.6 NNW 15 19 8 10 1022.8 1022.8 0.0
04/01:30am 8.2 3.7 2.2 66 2.5 NNW 15 17 8 9 1023.1 1023.1 0.0
04/01:00am 8.1 3.2 1.9 65 2.5 NNW 17 20 9 11 1023.3 1023.3 0.0
04/12:30am 8.6 3.3 2.0 63 2.7 NNW 19 24 10 13 1023.6 1023.6 0.0
04/12:00am 7.7 4.1 2.8 71 2.0 N 11 13 6 7 1024.1 1024.1 0.0
 
Date/Time
EST
Tmp

°C
App
Tmp
°C
Dew
Point
°C
Rel
Hum
%
Delta-T

°C
Wind Press
QNH
hPa
Press
MSL
hPa
Rain
since
9 am
mm
Dir
 
Spd
km/h
Gust
km/h
Spd
kts
Gust
kts
03/11:30pm 7.6 3.9 2.5 70 2.1 N 11 13 6 7 1024.1 1024.1 0.0
03/11:00pm 7.8 4.2 2.7 70 2.1 N 11 13 6 7 1024.2 1024.2 0.0
03/10:30pm 7.3 2.9 2.6 72 2.0 N 15 17 8 9 1024.3 1024.3 0.0
03/10:00pm 7.4 3.0 2.5 71 2.0 N 15 17 8 9 1024.6 1024.6 0.0
03/09:30pm 7.7 3.3 2.6 70 2.1 N 15 17 8 9 1024.7 1024.7 0.0
03/09:00pm 7.4 3.3 2.3 70 2.1 N 13 15 7 8 1025.0 1025.0 0.0
03/08:30pm 7.4 3.7 2.3 70 2.1 N 11 13 6 7 1025.2 1025.2 0.0
03/08:00pm 6.9 3.5 1.6 69 2.1 N 9 9 5 5 1025.4 1025.4 0.0
03/07:30pm 7.0 3.1 1.3 67 2.3 NNW 11 13 6 7 1025.5 1025.5 0.0
03/07:00pm 8.6 4.7 1.3 60 3.0 WNW 11 15 6 8 1025.6 1025.6 0.0
03/06:30pm 9.1 4.4 1.0 57 3.3 NW 15 17 8 9 1025.7 1025.7 0.0
03/06:00pm 9.4 3.9 0.6 54 3.5 WNW 19 26 10 14 1025.7 1025.7 0.0
03/05:30pm 9.5 3.8 0.7 54 3.6 WNW 20 28 11 15 1025.6 1025.6 0.0
03/05:00pm 9.8 4.2 0.9 54 3.6 WNW 20 28 11 15 1025.6 1025.6 0.0
03/04:30pm 10.0 4.6 1.1 54 3.7 WNW 19 24 10 13 1025.9 1025.9 0.0
03/04:00pm 10.2 3.4 0.8 52 3.8 NW 26 30 14 16 1026.0 1026.0 0.0
03/03:30pm 10.5 4.5 1.1 52 3.9 NW 22 35 12 19 1026.1 1026.1 0.0
03/03:00pm 11.2 4.9 1.5 51 4.1 WNW 24 33 13 18 1026.0 1026.0 0.0
03/02:30pm 11.0 3.9 1.3 51 4.1 WNW 28 32 15 17 1026.1 1026.1 0.0
03/02:00pm 11.3 5.0 1.5 51 4.1 WNW 24 33 13 18 1026.2 1026.2 0.0
03/01:30pm 11.0 5.2 2.1 54 3.8 W 22 28 12 15 1026.6 1026.6 0.0
03/01:00pm 11.0 5.6 2.3 55 3.7 W 20 30 11 16 1026.9 1026.9 0.0
03/12:30pm 10.7 5.5 2.5 57 3.5 W 19 26 10 14 1027.1 1027.1 0.0
03/12:00pm 10.2 4.9 3.0 61 3.1 WNW 20 24 11 13 1027.5 1027.5 0.0
03/11:30am 11.0 5.7 2.8 57 3.5 W 20 24 11 13 1027.9 1027.9 0.0
03/11:00am 10.7 5.6 4.0 63 2.9 W 20 28 11 15 1028.3 1028.3 0.0
03/10:30am 10.1 4.4 4.9 70 2.3 W 24 32 13 17 1028.6 1028.6 0.0
03/10:00am 9.5 4.6 5.3 75 1.9 WNW 20 26 11 14 1028.8 1028.8 0.0
03/09:30am 8.5 3.8 5.1 79 1.5 WNW 19 26 10 14 1028.6 1028.6 0.0
03/09:00am 7.5 3.1 4.8 83 1.2 WNW 17 20 9 11 1028.7 1028.7 1.2
03/08:30am 6.4 2.3 4.2 86 0.9 WNW 15 20 8 11 1028.4 1028.4 1.2
03/08:00am 6.2 2.2 4.7 90 0.6 WNW 15 20 8 11 1028.0 1028.0 1.2
03/07:30am 4.9 1.8 3.4 90 0.6 NW 9 13 5 7 1028.0 1028.0 1.2
03/07:00am 4.6 1.1 3.6 93 0.4 WNW 11 13 6 7 1027.9 1027.9 1.2
03/06:30am 3.4 -0.3 2.1 91 0.5 WNW 11 13 6 7 1027.8 1027.8 1.2
03/06:00am 4.6 0.7 3.3 91 0.5 W 13 17 7 9 1027.8 1027.8 1.2
03/05:30am 4.3 0.3 3.0 91 0.5 WNW 13 15 7 8 1027.7 1027.7 1.2
03/05:00am 4.5 0.2 3.2 91 0.5 WNW 15 17 8 9 1027.6 1027.6 1.2
03/04:30am 4.9 1.0 3.6 91 0.5 WNW 13 17 7 9 1027.9 1027.9 1.2
03/04:00am 4.5 2.7 3.3 92 0.5 SSE 2 7 1 4 1028.1 1028.1 1.0
03/03:30am 4.4 1.2 3.1 91 0.5 NW 9 11 5 6 1027.9 1027.9 1.0
03/03:00am 4.5 0.9 3.2 91 0.5 NW 11 15 6 8 1028.1 1028.1 1.0
03/02:30am 4.0 0.0 2.7 91 0.5 WNW 13 17 7 9 1028.1 1028.1 1.0
03/02:00am 4.4 0.4 3.1 91 0.5 WNW 13 15 7 8 1028.2 1028.2 1.0
03/01:30am 4.5 0.5 3.0 90 0.6 WNW 13 15 7 8 1028.1 1028.1 1.0
03/01:00am 5.0 0.7 3.3 89 0.7 WNW 15 20 8 11 1028.3 1028.3 1.0
03/12:30am 5.5 1.2 3.3 86 0.9 WNW 15 19 8 10 1028.5 1028.5 1.0
03/12:00am 6.4 1.5 4.2 86 0.9 WNW 19 22 10 12 1028.6 1028.6 1.0
 
Date/Time
EST
Tmp

°C
App
Tmp
°C
Dew
Point
°C
Rel
Hum
%
Delta-T

°C
Wind Press
QNH
hPa
Press
MSL
hPa
Rain
since
9 am
mm
Dir
 
Spd
km/h
Gust
km/h
Spd
kts
Gust
kts
02/11:30pm 5.7 1.5 3.9 88 0.8 W 15 19 8 10 1029.0 1029.0 1.0
02/11:00pm 5.4 1.5 3.4 87 0.8 W 13 17 7 9 1028.9 1028.9 1.0
02/10:30pm 5.2 1.2 2.9 85 0.9 W 13 15 7 8 1028.7 1028.7 1.0
02/10:00pm 6.1 1.1 3.4 83 1.1 W 19 24 10 13 1028.5 1028.5 1.0
02/09:30pm 6.3 2.1 4.0 85 1.0 W 15 20 8 11 1028.4 1028.4 1.0
02/09:00pm 6.4 1.9 4.1 85 1.0 WNW 17 20 9 11 1028.2 1028.2 1.0
02/08:30pm 5.9 1.6 3.2 83 1.1 WNW 15 17 8 9 1028.1 1028.1 1.0
02/08:00pm 6.4 2.9 3.6 82 1.2 WNW 11 15 6 8 1028.0 1028.0 1.0
02/07:30pm 7.1 3.0 4.2 82 1.3 WSW 15 19 8 10 1028.0 1028.0 1.0
02/07:00pm 6.8 2.6 3.6 80 1.3 WNW 15 19 8 10 1027.4 1027.4 1.0
02/06:30pm 7.9 3.7 3.6 74 1.8 W 15 20 8 11 1027.1 1027.1 1.0
02/06:00pm 9.7 4.2 3.9 67 2.5 SW 22 28 12 15 1026.9 1026.9 1.0
02/05:30pm 8.9 3.9 3.7 70 2.3 SW 19 28 10 15 1026.8 1026.8 1.0
02/05:00pm 9.6 4.7 4.2 69 2.4 SW 19 28 10 15 1026.4 1026.4 1.0
02/04:30pm 10.3 5.5 5.5 72 2.2 SSW 20 26 11 14 1025.9 1025.9 1.0
02/04:00pm 11.9 6.0 3.7 57 3.6 SW 24 33 13 18 1025.6 1025.6 1.0
02/03:30pm 11.8 5.3 4.8 62 3.2 SW 28 37 15 20 1025.3 1025.3 1.0
02/03:00pm 11.8 4.4 3.8 58 3.5 SW 32 44 17 24 1024.9 1024.9 1.0
02/02:30pm 11.8 4.7 3.8 58 3.6 WSW 30 39 16 21 1024.9 1024.9 1.0
02/02:00pm 11.6 4.2 4.1 60 3.3 SW 32 41 17 22 1024.4 1024.4 1.0
02/01:30pm 11.3 3.3 3.8 60 3.3 SW 35 50 19 27 1024.3 1024.3 1.0
02/01:00pm 11.3 2.1 3.3 58 3.5 SW 41 50 22 27 1024.2 1024.2 1.0
02/12:30pm 11.7 3.4 4.0 59 3.4 SW 37 48 20 26 1023.8 1023.8 1.0
02/12:00pm 11.1 3.4 3.6 60 3.3 SW 33 46 18 25 1023.6 1023.6 1.0
02/11:38am 10.3 2.3 3.8 64 2.9 SW 35 57 19 31 1023.6 1023.6 1.0
02/11:30am 10.5 4.0 6.5 76 1.9 SW 30 44 16 24 1023.6 1023.6 1.0
02/11:19am 11.1 3.7 4.1 62 3.1 SW 32 52 17 28 1023.5 1023.5 1.0
02/11:00am 10.7 3.6 5.5 70 2.4 WSW 32 43 17 23 1023.5 1023.5 1.0
02/10:30am 9.9 3.2 5.5 74 2.0 W 30 41 16 22 1023.0 1023.0 1.0
02/10:00am 8.7 2.3 5.3 79 1.5 W 28 41 15 22 1022.6 1022.6 1.0
02/09:37am 8.5 1.2 5.4 81 1.4 WSW 33 54 18 29 1022.7 1022.7 1.0
02/09:30am 8.5 2.8 6.6 88 0.9 WSW 26 35 14 19 1022.4 1022.4 1.0
02/09:29am 8.5 2.8 6.6 88 0.9 WSW 26 35 14 19 1022.3 1022.3 1.0
02/09:03am 8.8 1.9 6.4 85 1.1 W 32 54 17 29 1021.8 1021.8 0.2
02/09:01am 9.1 3.0 6.4 83 1.2 W 28 48 15 26 1021.6 1021.6 0.0
02/09:00am 9.1 3.3 6.2 82 1.3 W 26 46 14 25 1021.5 1021.5 -
02/08:30am 9.1 2.9 6.2 82 1.3 WNW 28 41 15 22 1020.8 1020.8 -
02/08:00am 9.8 2.7 5.4 74 2.0 WNW 32 44 17 24 1020.4 1020.4 -
02/07:30am 8.9 2.9 5.3 78 1.6 WNW 26 32 14 17 1019.9 1019.9 -
02/07:00am 8.9 3.6 5.1 77 1.7 WNW 22 28 12 15 1019.7 1019.7 -
02/06:30am 9.6 5.0 6.3 80 1.5 WNW 20 26 11 14 1019.3 1019.3 -
02/06:00am 10.4 4.3 6.5 77 1.8 WNW 28 33 15 18 1019.3 1019.3 -
02/05:30am 10.9 5.8 7.6 80 1.6 W 24 33 13 18 1019.0 1019.0 -
02/05:00am 10.9 5.9 8.1 83 1.4 W 24 35 13 19 1018.9 1018.9 -
02/04:30am 11.4 5.8 8.8 84 1.3 WNW 28 37 15 20 1018.7 1018.7 -
02/04:00am 11.5 5.6 9.1 85 1.2 WNW 30 41 16 22 1018.5 1018.5 -
02/03:45am 11.6 4.4 9.2 85 1.2 WNW 37 56 20 30 1018.5 1018.5 -
02/03:30am 11.5 3.9 9.2 86 1.2 WNW 39 54 21 29 1018.4 1018.4 -
02/03:00am 12.7 5.3 8.4 75 2.1 WNW 37 54 20 29 1018.3 1018.3 0.0
02/02:51am 12.9 7.2 8.4 74 2.2 WNW 28 48 15 26 1018.2 1018.2 -
02/02:30am 12.9 6.8 8.2 73 2.3 NW 30 35 16 19 1018.4 1018.4 -
02/02:01am 13.1 6.5 7.8 70 2.6 NW 32 48 17 26 1018.2 1018.2 -
02/02:00am 13.1 6.9 7.8 70 2.6 NW 30 44 16 24 1018.2 1018.2 -
02/01:30am 12.8 7.7 7.5 70 2.6 NW 24 32 13 17 1018.2 1018.2 -
02/01:00am 12.5 7.0 7.4 71 2.5 NW 26 33 14 18 1018.7 1018.7 -
02/12:30am 12.6 6.7 7.5 71 2.5 NW 28 39 15 21 1019.2 1019.2 -
02/12:00am 12.7 6.1 7.6 71 2.5 NW 32 44 17 24 1019.7 1019.7 -

Latest Capital City Observations: Canberra | Sydney | Melbourne | Brisbane | Adelaide | Perth | Hobart | Darwin

Other Formats:

Comma delimited format used in spreadsheet applications
http://www.bom.gov.au/fwo/IDV60901/IDV60901.94854.axf

JavaScript Object Notation format (JSON) in row-major order
http://www.bom.gov.au/fwo/IDV60901/IDV60901.94854.json